sensor_id;sensor_type;location;lat;lon;timestamp;pressure;altitude;pressure_sealevel;temperature;humidity
66762;BME280;53672;48.176;16.338;2023-04-01T00:00:11;97684.28;;;10.57;63.68
66762;BME280;53672;48.176;16.338;2023-04-01T00:05:12;97711.06;;;10.54;63.57
66762;BME280;53672;48.176;16.338;2023-04-01T00:10:13;97706.47;;;10.54;63.42
66762;BME280;53672;48.176;16.338;2023-04-01T00:15:15;97715.66;;;10.53;63.71
66762;BME280;53672;48.176;16.338;2023-04-01T00:20:16;97720.53;;;10.51;63.55
66762;BME280;53672;48.176;16.338;2023-04-01T00:25:16;97716.59;;;10.49;63.45
66762;BME280;53672;48.176;16.338;2023-04-01T00:30:19;97726.91;;;10.47;63.51
66762;BME280;53672;48.176;16.338;2023-04-01T00:35:20;97723.06;;;10.39;63.73
66762;BME280;53672;48.176;16.338;2023-04-01T00:40:25;97719.91;;;10.37;63.90
66762;BME280;53672;48.176;16.338;2023-04-01T00:45:32;97724.16;;;10.38;64.00
66762;BME280;53672;48.176;16.338;2023-04-01T00:50:34;97726.53;;;10.31;64.07
66762;BME280;53672;48.176;16.338;2023-04-01T00:55:37;97713.22;;;10.26;64.30
66762;BME280;53672;48.176;16.338;2023-04-01T01:00:41;97719.25;;;10.32;64.10
66762;BME280;53672;48.176;16.338;2023-04-01T01:06:01;97721.13;;;10.31;63.92
66762;BME280;53672;48.176;16.338;2023-04-01T01:11:08;97708.47;;;10.23;64.42
66762;BME280;53672;48.176;16.338;2023-04-01T01:16:16;97709.38;;;10.18;64.56
66762;BME280;53672;48.176;16.338;2023-04-01T01:26:45;97693.88;;;10.15;64.20
66762;BME280;53672;48.176;16.338;2023-04-01T01:31:53;97691.47;;;10.14;64.34
66762;BME280;53672;48.176;16.338;2023-04-01T01:37:02;97697.53;;;10.20;64.02
66762;BME280;53672;48.176;16.338;2023-04-01T01:42:08;97685.50;;;10.17;64.44
66762;BME280;53672;48.176;16.338;2023-04-01T01:47:10;97688.66;;;10.19;64.36
66762;BME280;53672;48.176;16.338;2023-04-01T01:52:13;97696.47;;;10.07;65.25
66762;BME280;53672;48.176;16.338;2023-04-01T01:57:14;97704.25;;;10.00;66.00
66762;BME280;53672;48.176;16.338;2023-04-01T02:02:16;97700.75;;;9.99;66.49
66762;BME280;53672;48.176;16.338;2023-04-01T02:07:23;97707.63;;;9.83;67.20
66762;BME280;53672;48.176;16.338;2023-04-01T02:12:26;97696.19;;;9.69;68.40
66762;BME280;53672;48.176;16.338;2023-04-01T02:17:29;97699.00;;;9.64;68.47
66762;BME280;53672;48.176;16.338;2023-04-01T02:22:33;97699.13;;;9.59;68.65
66762;BME280;53672;48.176;16.338;2023-04-01T02:27:34;97703.84;;;9.53;68.64
66762;BME280;53672;48.176;16.338;2023-04-01T02:32:37;97709.00;;;9.41;69.14
66762;BME280;53672;48.176;16.338;2023-04-01T02:37:39;97719.16;;;9.44;68.89
66762;BME280;53672;48.176;16.338;2023-04-01T02:42:40;97717.25;;;9.45;68.92
66762;BME280;53672;48.176;16.338;2023-04-01T02:47:40;97718.03;;;9.45;67.94
66762;BME280;53672;48.176;16.338;2023-04-01T02:52:42;97720.69;;;9.37;68.48
66762;BME280;53672;48.176;16.338;2023-04-01T02:57:43;97720.69;;;9.37;68.51
66762;BME280;53672;48.176;16.338;2023-04-01T03:02:43;97734.31;;;9.40;68.61
66762;BME280;53672;48.176;16.338;2023-04-01T03:07:45;97721.41;;;9.51;69.19
66762;BME280;53672;48.176;16.338;2023-04-01T03:12:46;97725.06;;;9.55;68.39
66762;BME280;53672;48.176;16.338;2023-04-01T03:17:46;97734.97;;;9.46;68.86
66762;BME280;53672;48.176;16.338;2023-04-01T03:22:48;97720.69;;;9.37;68.91
66762;BME280;53672;48.176;16.338;2023-04-01T03:27:49;97728.38;;;9.30;69.21
66762;BME280;53672;48.176;16.338;2023-04-01T03:32:49;97730.78;;;9.31;69.30
66762;BME280;53672;48.176;16.338;2023-04-01T03:37:52;97735.66;;;9.29;69.36
66762;BME280;53672;48.176;16.338;2023-04-01T03:42:52;97728.81;;;9.23;69.65
66762;BME280;53672;48.176;16.338;2023-04-01T03:47:53;97728.16;;;9.18;69.92
66762;BME280;53672;48.176;16.338;2023-04-01T03:52:55;97723.34;;;9.14;70.39
66762;BME280;53672;48.176;16.338;2023-04-01T03:57:56;97714.41;;;9.19;69.60
66762;BME280;53672;48.176;16.338;2023-04-01T04:02:57;97713.41;;;9.15;69.87
66762;BME280;53672;48.176;16.338;2023-04-01T04:07:59;97706.03;;;9.21;69.13
66762;BME280;53672;48.176;16.338;2023-04-01T04:12:59;97700.84;;;9.24;68.55
66762;BME280;53672;48.176;16.338;2023-04-01T04:18:00;97703.56;;;9.33;68.10
66762;BME280;53672;48.176;16.338;2023-04-01T04:23:02;97708.47;;;9.31;68.13
66762;BME280;53672;48.176;16.338;2023-04-01T04:28:02;97716.84;;;9.29;67.95
66762;BME280;53672;48.176;16.338;2023-04-01T04:33:03;97708.03;;;9.37;67.41
66762;BME280;53672;48.176;16.338;2023-04-01T04:38:05;97715.91;;;9.34;67.67
66762;BME280;53672;48.176;16.338;2023-04-01T04:43:06;97712.72;;;9.32;67.88
66762;BME280;53672;48.176;16.338;2023-04-01T04:48:07;97715.59;;;9.35;67.56
66762;BME280;53672;48.176;16.338;2023-04-01T04:53:10;97723.06;;;9.38;67.47
66762;BME280;53672;48.176;16.338;2023-04-01T04:58:11;97730.03;;;9.39;67.54
66762;BME280;53672;48.176;16.338;2023-04-01T05:03:12;97735.72;;;9.38;67.64
66762;BME280;53672;48.176;16.338;2023-04-01T05:08:14;97731.69;;;9.27;68.27
66762;BME280;53672;48.176;16.338;2023-04-01T05:13:14;97731.72;;;9.35;67.92
66762;BME280;53672;48.176;16.338;2023-04-01T05:18:15;97713.69;;;9.58;67.53
66762;BME280;53672;48.176;16.338;2023-04-01T05:23:17;97718.72;;;9.82;66.68
66762;BME280;53672;48.176;16.338;2023-04-01T05:28:18;97712.97;;;10.05;65.95
66762;BME280;53672;48.176;16.338;2023-04-01T05:33:19;97713.22;;;10.35;64.87
66762;BME280;53672;48.176;16.338;2023-04-01T05:38:21;97733.25;;;10.59;64.36
66762;BME280;53672;48.176;16.338;2023-04-01T05:43:21;97734.06;;;10.86;63.34
66762;BME280;53672;48.176;16.338;2023-04-01T05:48:22;97741.84;;;11.04;62.86
66762;BME280;53672;48.176;16.338;2023-04-01T05:53:24;97757.91;;;11.09;62.15
66762;BME280;53672;48.176;16.338;2023-04-01T05:58:24;97765.94;;;11.52;60.96
66762;BME280;53672;48.176;16.338;2023-04-01T06:03:25;97777.31;;;12.01;59.28
66762;BME280;53672;48.176;16.338;2023-04-01T06:08:27;97781.13;;;12.38;58.34
66762;BME280;53672;48.176;16.338;2023-04-01T06:13:38;97766.38;;;12.64;56.69
66762;BME280;53672;48.176;16.338;2023-04-01T06:18:55;97779.25;;;13.17;55.40
66762;BME280;53672;48.176;16.338;2023-04-01T06:24:07;97777.94;;;13.44;54.30
66762;BME280;53672;48.176;16.338;2023-04-01T06:29:37;97792.13;;;13.41;54.46
66762;BME280;53672;48.176;16.338;2023-04-01T06:34:54;97794.56;;;13.13;55.27
66762;BME280;53672;48.176;16.338;2023-04-01T06:40:21;97786.91;;;13.15;55.67
66762;BME280;53672;48.176;16.338;2023-04-01T06:45:31;97799.41;;;13.29;55.21
66762;BME280;53672;48.176;16.338;2023-04-01T06:50:49;97789.31;;;13.70;53.84
66762;BME280;53672;48.176;16.338;2023-04-01T06:55:59;97788.34;;;13.87;52.93
66762;BME280;53672;48.176;16.338;2023-04-01T07:01:02;97801.44;;;13.85;52.85
66762;BME280;53672;48.176;16.338;2023-04-01T07:06:05;97795.44;;;13.80;52.89
66762;BME280;53672;48.176;16.338;2023-04-01T07:11:22;97796.66;;;14.15;51.56
66762;BME280;53672;48.176;16.338;2023-04-01T07:16:27;97804.88;;;14.51;50.73
66762;BME280;53672;48.176;16.338;2023-04-01T07:21:33;97797.75;;;14.59;49.15
66762;BME280;53672;48.176;16.338;2023-04-01T07:26:37;97804.88;;;14.63;49.54
66762;BME280;53672;48.176;16.338;2023-04-01T07:31:49;97821.69;;;14.57;49.22
66762;BME280;53672;48.176;16.338;2023-04-01T07:37:00;97818.31;;;14.72;49.06
66762;BME280;53672;48.176;16.338;2023-04-01T07:42:15;97806.78;;;14.99;48.17
66762;BME280;53672;48.176;16.338;2023-04-01T07:47:27;97803.34;;;15.27;47.56
66762;BME280;53672;48.176;16.338;2023-04-01T07:52:35;97810.47;;;15.19;47.38
66762;BME280;53672;48.176;16.338;2023-04-01T07:57:46;97827.06;;;15.30;47.26
66762;BME280;53672;48.176;16.338;2023-04-01T08:03:04;97830.00;;;15.37;47.86
66762;BME280;53672;48.176;16.338;2023-04-01T08:08:16;97817.06;;;15.46;46.77
66762;BME280;53672;48.176;16.338;2023-04-01T08:13:30;97836.13;;;15.73;45.57
66762;BME280;53672;48.176;16.338;2023-04-01T08:18:40;97834.41;;;16.24;44.41
66762;BME280;53672;48.176;16.338;2023-04-01T08:23:46;97837.41;;;16.19;43.16
66762;BME280;53672;48.176;16.338;2023-04-01T08:28:53;97843.03;;;16.42;43.72
66762;BME280;53672;48.176;16.338;2023-04-01T08:33:55;97846.03;;;17.15;42.61
66762;BME280;53672;48.176;16.338;2023-04-01T08:39:02;97837.88;;;18.08;40.20
66762;BME280;53672;48.176;16.338;2023-04-01T08:44:33;97839.66;;;17.27;40.60
66762;BME280;53672;48.176;16.338;2023-04-01T08:49:52;97833.59;;;16.83;42.36
66762;BME280;53672;48.176;16.338;2023-04-01T08:55:27;97844.44;;;19.43;36.99
66762;BME280;53672;48.176;16.338;2023-04-01T09:00:33;97839.47;;;19.52;35.54
66762;BME280;53672;48.176;16.338;2023-04-01T09:06:00;97849.53;;;21.33;32.47
66762;BME280;53672;48.176;16.338;2023-04-01T09:11:12;97854.84;;;20.64;33.87
66762;BME280;53672;48.176;16.338;2023-04-01T09:16:27;97849.56;;;18.50;37.31
66762;BME280;53672;48.176;16.338;2023-04-01T09:21:41;97848.13;;;19.88;34.54
66762;BME280;53672;48.176;16.338;2023-04-01T09:27:02;97853.72;;;19.98;33.91
66762;BME280;53672;48.176;16.338;2023-04-01T09:32:26;97863.19;;;18.08;37.60
66762;BME280;53672;48.176;16.338;2023-04-01T09:37:51;97859.31;;;16.70;41.13
66762;BME280;53672;48.176;16.338;2023-04-01T09:48:33;97871.97;;;18.40;37.09
66762;BME280;53672;48.176;16.338;2023-04-01T09:53:47;97883.78;;;17.33;39.34
66762;BME280;53672;48.176;16.338;2023-04-01T10:05:04;97856.19;;;19.21;36.06
66762;BME280;53672;48.176;16.338;2023-04-01T10:15:57;97855.31;;;27.61;23.03
66762;BME280;53672;48.176;16.338;2023-04-01T10:21:28;97851.19;;;23.68;27.34
66762;BME280;53672;48.176;16.338;2023-04-01T10:32:45;97852.03;;;17.94;37.30
66762;BME280;53672;48.176;16.338;2023-04-01T10:43:52;97844.38;;;16.95;40.30
66762;BME280;53672;48.176;16.338;2023-04-01T10:49:14;97847.09;;;17.46;38.76
66762;BME280;53672;48.176;16.338;2023-04-01T10:54:45;97851.50;;;17.89;38.66
66762;BME280;53672;48.176;16.338;2023-04-01T11:00:27;97845.03;;;18.16;37.54
66762;BME280;53672;48.176;16.338;2023-04-01T11:06:04;97844.34;;;17.81;37.37
66762;BME280;53672;48.176;16.338;2023-04-01T11:11:36;97837.31;;;17.45;37.67
66762;BME280;53672;48.176;16.338;2023-04-01T11:17:14;97836.47;;;16.90;38.67
66762;BME280;53672;48.176;16.338;2023-04-01T11:28:03;97834.69;;;17.48;37.96
66762;BME280;53672;48.176;16.338;2023-04-01T11:33:14;97834.16;;;17.58;37.84
66762;BME280;53672;48.176;16.338;2023-04-01T11:38:30;97836.97;;;17.46;37.69
66762;BME280;53672;48.176;16.338;2023-04-01T11:43:37;97834.28;;;17.31;37.81
66762;BME280;53672;48.176;16.338;2023-04-01T11:48:55;97839.88;;;17.72;37.17
66762;BME280;53672;48.176;16.338;2023-04-01T11:54:09;97846.06;;;17.69;36.34
66762;BME280;53672;48.176;16.338;2023-04-01T11:59:29;97848.16;;;20.58;32.17
66762;BME280;53672;48.176;16.338;2023-04-01T12:04:43;97839.75;;;23.77;27.00
66762;BME280;53672;48.176;16.338;2023-04-01T12:09:53;97847.75;;;22.97;27.92
66762;BME280;53672;48.176;16.338;2023-04-01T12:15:14;97834.34;;;22.39;28.32
66762;BME280;53672;48.176;16.338;2023-04-01T12:20:29;97837.72;;;20.30;31.53
66762;BME280;53672;48.176;16.338;2023-04-01T12:26:00;97841.34;;;19.74;33.36
66762;BME280;53672;48.176;16.338;2023-04-01T12:31:20;97832.91;;;19.90;32.38
66762;BME280;53672;48.176;16.338;2023-04-01T12:36:35;97841.53;;;19.06;33.91
66762;BME280;53672;48.176;16.338;2023-04-01T12:41:46;97842.00;;;18.86;34.36
66762;BME280;53672;48.176;16.338;2023-04-01T12:47:06;97853.13;;;18.12;35.50
66762;BME280;53672;48.176;16.338;2023-04-01T12:52:12;97845.03;;;17.58;36.76
66762;BME280;53672;48.176;16.338;2023-04-01T12:57:28;97834.69;;;18.25;36.29
66762;BME280;53672;48.176;16.338;2023-04-01T13:02:43;97825.72;;;18.93;35.48
66762;BME280;53672;48.176;16.338;2023-04-01T13:08:09;97819.41;;;19.15;34.63
66762;BME280;53672;48.176;16.338;2023-04-01T13:13:46;97811.91;;;19.35;34.26
66762;BME280;53672;48.176;16.338;2023-04-01T13:18:58;97822.78;;;19.05;34.13
66762;BME280;53672;48.176;16.338;2023-04-01T13:24:09;97815.06;;;18.61;33.77
66762;BME280;53672;48.176;16.338;2023-04-01T13:29:18;97813.63;;;19.20;32.91
66762;BME280;53672;48.176;16.338;2023-04-01T13:34:35;97807.66;;;19.11;32.97
66762;BME280;53672;48.176;16.338;2023-04-01T13:40:02;97816.41;;;18.97;33.23
66762;BME280;53672;48.176;16.338;2023-04-01T13:45:12;97815.28;;;19.24;32.80
66762;BME280;53672;48.176;16.338;2023-04-01T13:50:37;97804.03;;;19.59;32.21
66762;BME280;53672;48.176;16.338;2023-04-01T13:56:07;97800.50;;;19.59;32.38
66762;BME280;53672;48.176;16.338;2023-04-01T14:01:15;97801.81;;;19.12;32.29
66762;BME280;53672;48.176;16.338;2023-04-01T14:06:28;97803.34;;;18.38;33.82
66762;BME280;53672;48.176;16.338;2023-04-01T14:11:37;97794.91;;;18.01;35.18
66762;BME280;53672;48.176;16.338;2023-04-01T14:17:07;97784.31;;;17.58;35.59
66762;BME280;53672;48.176;16.338;2023-04-01T14:22:20;97789.50;;;17.28;36.84
66762;BME280;53672;48.176;16.338;2023-04-01T14:27:32;97790.75;;;17.50;35.69
66762;BME280;53672;48.176;16.338;2023-04-01T14:32:40;97789.22;;;17.33;35.73
66762;BME280;53672;48.176;16.338;2023-04-01T14:37:58;97791.72;;;17.22;34.15
66762;BME280;53672;48.176;16.338;2023-04-01T14:43:20;97786.44;;;16.79;34.70
66762;BME280;53672;48.176;16.338;2023-04-01T14:48:30;97792.06;;;16.55;35.36
66762;BME280;53672;48.176;16.338;2023-04-01T14:53:35;97782.81;;;16.56;35.18
66762;BME280;53672;48.176;16.338;2023-04-01T14:58:45;97788.25;;;16.56;34.91
66762;BME280;53672;48.176;16.338;2023-04-01T15:03:53;97774.19;;;16.54;34.97
66762;BME280;53672;48.176;16.338;2023-04-01T15:09:02;97780.38;;;16.54;35.63
66762;BME280;53672;48.176;16.338;2023-04-01T15:14:23;97776.66;;;16.59;35.54
66762;BME280;53672;48.176;16.338;2023-04-01T15:19:35;97787.06;;;16.72;36.05
66762;BME280;53672;48.176;16.338;2023-04-01T15:24:46;97784.00;;;16.58;36.82
66762;BME280;53672;48.176;16.338;2023-04-01T15:30:07;97803.25;;;16.06;38.54
66762;BME280;53672;48.176;16.338;2023-04-01T15:35:20;97802.16;;;15.80;39.82
66762;BME280;53672;48.176;16.338;2023-04-01T15:40:31;97811.84;;;15.65;40.83
66762;BME280;53672;48.176;16.338;2023-04-01T15:45:42;97813.56;;;15.45;41.74
66762;BME280;53672;48.176;16.338;2023-04-01T15:51:01;97835.00;;;15.22;42.77
66762;BME280;53672;48.176;16.338;2023-04-01T15:56:18;97828.81;;;14.98;44.10
66762;BME280;53672;48.176;16.338;2023-04-01T16:01:27;97828.72;;;14.82;44.65
66762;BME280;53672;48.176;16.338;2023-04-01T16:06:52;97820.81;;;14.89;44.61
66762;BME280;53672;48.176;16.338;2023-04-01T16:12:04;97822.63;;;14.85;44.97
66762;BME280;53672;48.176;16.338;2023-04-01T16:17:19;97824.44;;;14.69;45.22
66762;BME280;53672;48.176;16.338;2023-04-01T16:22:27;97841.56;;;14.49;45.93
66762;BME280;53672;48.176;16.338;2023-04-01T16:27:36;97856.75;;;14.29;46.99
66762;BME280;53672;48.176;16.338;2023-04-01T16:32:45;97866.09;;;14.07;47.84
66762;BME280;53672;48.176;16.338;2023-04-01T16:37:51;97876.81;;;13.83;49.17
66762;BME280;53672;48.176;16.338;2023-04-01T16:43:06;97878.53;;;13.67;50.05
66762;BME280;53672;48.176;16.338;2023-04-01T16:48:13;97889.63;;;13.53;51.07
66762;BME280;53672;48.176;16.338;2023-04-01T16:53:17;97902.75;;;13.43;52.60
66762;BME280;53672;48.176;16.338;2023-04-01T16:58:24;97900.28;;;13.29;52.63
66762;BME280;53672;48.176;16.338;2023-04-01T17:03:29;97923.00;;;13.07;52.37
66762;BME280;53672;48.176;16.338;2023-04-01T17:08:50;97915.97;;;12.77;53.94
66762;BME280;53672;48.176;16.338;2023-04-01T17:14:02;97921.94;;;12.53;55.44
66762;BME280;53672;48.176;16.338;2023-04-01T17:19:15;97941.34;;;12.30;56.93
66762;BME280;53672;48.176;16.338;2023-04-01T17:24:43;97945.38;;;12.15;58.92
66762;BME280;53672;48.176;16.338;2023-04-01T17:30:04;97946.50;;;12.05;59.59
66762;BME280;53672;48.176;16.338;2023-04-01T17:35:13;97949.97;;;11.80;60.64
66762;BME280;53672;48.176;16.338;2023-04-01T17:40:34;97961.53;;;11.63;61.29
66762;BME280;53672;48.176;16.338;2023-04-01T17:45:45;97965.16;;;11.50;62.16
66762;BME280;53672;48.176;16.338;2023-04-01T17:51:01;97965.88;;;11.34;63.39
66762;BME280;53672;48.176;16.338;2023-04-01T17:56:15;97985.34;;;11.13;64.34
66762;BME280;53672;48.176;16.338;2023-04-01T18:01:35;97985.50;;;11.08;64.78
66762;BME280;53672;48.176;16.338;2023-04-01T18:06:51;97998.75;;;10.96;65.10
66762;BME280;53672;48.176;16.338;2023-04-01T18:12:05;98011.84;;;10.81;65.64
66762;BME280;53672;48.176;16.338;2023-04-01T18:17:19;98023.97;;;10.69;66.17
66762;BME280;53672;48.176;16.338;2023-04-01T18:22:26;98033.19;;;10.46;66.78
66762;BME280;53672;48.176;16.338;2023-04-01T18:27:32;98041.53;;;10.45;67.04
66762;BME280;53672;48.176;16.338;2023-04-01T18:32:44;98047.69;;;10.37;67.68
66762;BME280;53672;48.176;16.338;2023-04-01T18:37:54;98056.28;;;10.25;67.92
66762;BME280;53672;48.176;16.338;2023-04-01T18:43:05;98065.47;;;10.24;68.40
66762;BME280;53672;48.176;16.338;2023-04-01T18:48:40;98073.97;;;10.17;68.86
66762;BME280;53672;48.176;16.338;2023-04-01T18:53:47;98074.75;;;10.18;69.05
66762;BME280;53672;48.176;16.338;2023-04-01T18:58:55;98083.34;;;10.06;69.97
66762;BME280;53672;48.176;16.338;2023-04-01T19:04:15;98086.94;;;10.02;70.40
66762;BME280;53672;48.176;16.338;2023-04-01T19:09:24;98084.25;;;10.02;70.68
66762;BME280;53672;48.176;16.338;2023-04-01T19:14:34;98094.16;;;9.93;71.18
66762;BME280;53672;48.176;16.338;2023-04-01T19:19:48;98098.75;;;9.79;71.71
66762;BME280;53672;48.176;16.338;2023-04-01T19:25:10;98095.03;;;9.75;71.59
66762;BME280;53672;48.176;16.338;2023-04-01T19:30:33;98096.94;;;9.74;71.10
66762;BME280;53672;48.176;16.338;2023-04-01T19:35:40;98093.16;;;9.75;71.15
66762;BME280;53672;48.176;16.338;2023-04-01T19:40:53;98122.03;;;9.69;71.30
66762;BME280;53672;48.176;16.338;2023-04-01T19:46:02;98127.22;;;9.66;71.60
66762;BME280;53672;48.176;16.338;2023-04-01T19:51:12;98124.44;;;9.57;72.13
66762;BME280;53672;48.176;16.338;2023-04-01T19:56:16;98126.31;;;9.57;72.00
66762;BME280;53672;48.176;16.338;2023-04-01T20:01:23;98131.22;;;9.55;72.34
66762;BME280;53672;48.176;16.338;2023-04-01T20:06:34;98134.50;;;9.52;72.70
66762;BME280;53672;48.176;16.338;2023-04-01T20:11:46;98137.00;;;9.48;73.06
66762;BME280;53672;48.176;16.338;2023-04-01T20:17:17;98132.28;;;9.40;73.33
66762;BME280;53672;48.176;16.338;2023-04-01T20:22:38;98127.00;;;9.35;73.54
66762;BME280;53672;48.176;16.338;2023-04-01T20:27:56;98125.63;;;9.38;73.71
66762;BME280;53672;48.176;16.338;2023-04-01T20:33:10;98137.69;;;9.40;73.38
66762;BME280;53672;48.176;16.338;2023-04-01T20:38:41;98127.13;;;9.44;73.45
66762;BME280;53672;48.176;16.338;2023-04-01T20:44:03;98128.22;;;9.43;73.32
66762;BME280;53672;48.176;16.338;2023-04-01T20:49:38;98129.22;;;9.47;73.32
66762;BME280;53672;48.176;16.338;2023-04-01T20:54:52;98131.03;;;9.51;73.36
66762;BME280;53672;48.176;16.338;2023-04-01T21:00:16;98131.50;;;9.53;73.59
66762;BME280;53672;48.176;16.338;2023-04-01T21:05:45;98136.69;;;9.50;74.17
66762;BME280;53672;48.176;16.338;2023-04-01T21:10:59;98132.31;;;9.54;73.86
66762;BME280;53672;48.176;16.338;2023-04-01T21:16:14;98135.09;;;9.62;72.93
66762;BME280;53672;48.176;16.338;2023-04-01T21:21:24;98136.41;;;9.65;72.23
66762;BME280;53672;48.176;16.338;2023-04-01T21:26:36;98160.22;;;9.72;72.12
66762;BME280;53672;48.176;16.338;2023-04-01T21:31:50;98158.13;;;9.68;72.46
66762;BME280;53672;48.176;16.338;2023-04-01T21:37:01;98161.91;;;9.67;73.60
66762;BME280;53672;48.176;16.338;2023-04-01T21:42:19;98163.91;;;9.62;74.17
66762;BME280;53672;48.176;16.338;2023-04-01T21:53:22;98170.16;;;9.57;75.24
66762;BME280;53672;48.176;16.338;2023-04-01T22:04:42;98171.38;;;9.51;75.33
66762;BME280;53672;48.176;16.338;2023-04-01T22:09:52;98175.97;;;9.64;75.16
66762;BME280;53672;48.176;16.338;2023-04-01T22:15:03;98179.72;;;9.63;74.66
66762;BME280;53672;48.176;16.338;2023-04-01T22:20:18;98179.25;;;9.61;75.02
66762;BME280;53672;48.176;16.338;2023-04-01T22:25:25;98177.84;;;9.64;74.94
66762;BME280;53672;48.176;16.338;2023-04-01T22:30:31;98174.75;;;9.57;75.37
66762;BME280;53672;48.176;16.338;2023-04-01T22:35:39;98173.88;;;9.61;74.77
66762;BME280;53672;48.176;16.338;2023-04-01T22:40:47;98174.66;;;9.62;74.70
66762;BME280;53672;48.176;16.338;2023-04-01T22:46:14;98179.53;;;9.60;74.41
66762;BME280;53672;48.176;16.338;2023-04-01T22:51:24;98176.75;;;9.65;74.25
66762;BME280;53672;48.176;16.338;2023-04-01T22:56:33;98184.84;;;9.65;74.62
66762;BME280;53672;48.176;16.338;2023-04-01T23:01:38;98190.81;;;9.62;75.43
66762;BME280;53672;48.176;16.338;2023-04-01T23:06:47;98187.53;;;9.65;75.39
66762;BME280;53672;48.176;16.338;2023-04-01T23:11:52;98184.44;;;9.72;74.56
66762;BME280;53672;48.176;16.338;2023-04-01T23:16:57;98192.19;;;9.73;74.15
66762;BME280;53672;48.176;16.338;2023-04-01T23:22:06;98207.53;;;9.73;74.15
66762;BME280;53672;48.176;16.338;2023-04-01T23:27:16;98200.06;;;9.69;73.60
66762;BME280;53672;48.176;16.338;2023-04-01T23:32:22;98202.97;;;9.73;73.60
66762;BME280;53672;48.176;16.338;2023-04-01T23:37:26;98203.38;;;9.80;72.53
66762;BME280;53672;48.176;16.338;2023-04-01T23:42:28;98199.00;;;9.84;72.21
66762;BME280;53672;48.176;16.338;2023-04-01T23:47:31;98213.34;;;9.80;72.51
66762;BME280;53672;48.176;16.338;2023-04-01T23:52:38;98211.25;;;9.90;71.44
66762;BME280;53672;48.176;16.338;2023-04-01T23:57:40;98220.34;;;9.94;71.34
